Time;durP1;ratioP1;P1;durP2;ratioP2;P2;SDS_P1;SDS_P2;PMS_P1;PMS_P2;Temp;Humidity;BMP_temperature;BMP_pressure;BME280_temperature;BME280_humidity;BME280_pressure;Samples;Min_cycle;Max_cycle;Signal;HPM_P1;HPM_P2
2020/12/24 00:00:59;;;;;;;7.25;1.90;;;5.90;93.60;;;;;;4992079;28;20046;-55
2020/12/24 00:03:25;;;;;;;12.30;2.00;;;5.90;93.60;;;;;;4992605;28;20050;-55
2020/12/24 00:05:51;;;;;;;16.60;2.08;;;5.90;93.80;;;;;;4992416;28;20049;-56
2020/12/24 00:08:16;;;;;;;8.77;1.58;;;5.90;93.90;;;;;;4992576;28;20488;-55
2020/12/24 00:10:42;;;;;;;16.13;2.28;;;5.90;93.30;;;;;;4992573;28;20408;-55
2020/12/24 00:13:08;;;;;;;9.27;2.25;;;5.90;93.10;;;;;;4992337;28;20045;-55
2020/12/24 00:15:34;;;;;;;8.18;1.40;;;6.00;92.70;;;;;;4992184;28;20050;-55
2020/12/24 00:17:59;;;;;;;9.55;1.67;;;5.90;93.00;;;;;;4992441;28;20053;-55
2020/12/24 00:20:25;;;;;;;15.25;1.75;;;5.90;93.00;;;;;;4992430;28;20105;-56
2020/12/24 00:22:51;;;;;;;3.45;0.80;;;5.90;93.00;;;;;;4992713;28;20942;-55
2020/12/24 00:25:17;;;;;;;11.23;1.67;;;5.80;92.80;;;;;;4992459;28;20049;-55
2020/12/24 00:27:42;;;;;;;9.40;1.30;;;5.90;92.90;;;;;;4992310;28;20441;-55
2020/12/24 00:30:10;;;;;;;6.25;1.33;;;5.80;93.10;;;;;;4992383;28;20096;-55
2020/12/24 00:32:36;;;;;;;9.05;1.45;;;5.80;92.90;;;;;;4992218;28;20117;-55
2020/12/24 00:35:02;;;;;;;6.90;1.40;;;5.80;93.10;;;;;;4992266;28;20524;-55
2020/12/24 00:37:28;;;;;;;5.38;1.08;;;5.80;93.10;;;;;;4992027;28;20049;-55
2020/12/24 00:39:53;;;;;;;6.60;1.50;;;5.80;93.10;;;;;;4991920;28;20042;-55
2020/12/24 00:42:19;;;;;;;7.88;1.63;;;5.80;93.00;;;;;;4993361;28;20100;-55
2020/12/24 00:44:45;;;;;;;14.20;1.13;;;5.80;93.20;;;;;;4995516;28;20046;-55
2020/12/24 00:47:10;;;;;;;8.50;1.00;;;5.80;93.10;;;;;;4995549;28;20089;-55
2020/12/24 00:49:36;;;;;;;12.95;1.15;;;5.80;92.80;;;;;;4995716;28;20045;-56
2020/12/24 00:52:02;;;;;;;6.82;1.50;;;5.80;93.00;;;;;;4995413;28;20481;-55
2020/12/24 00:54:27;;;;;;;8.38;1.40;;;5.80;92.90;;;;;;4995565;28;20112;-55
2020/12/24 00:56:53;;;;;;;6.15;1.10;;;5.80;92.90;;;;;;4995332;28;20416;-56
2020/12/24 00:59:19;;;;;;;6.90;1.10;;;5.80;92.70;;;;;;4995487;28;20161;-55
2020/12/24 01:01:45;;;;;;;6.88;0.90;;;5.80;92.90;;;;;;4995214;28;20081;-55
2020/12/24 01:04:10;;;;;;;2.92;0.88;;;5.70;92.60;;;;;;4995263;28;20046;-56
2020/12/24 01:06:36;;;;;;;4.70;1.20;;;5.70;92.40;;;;;;4995631;28;20198;-55
2020/12/24 01:09:03;;;;;;;6.25;0.90;;;5.70;92.40;;;;;;4995538;28;20042;-55
2020/12/24 01:11:29;;;;;;;5.45;1.23;;;5.70;92.20;;;;;;4995279;28;20068;-56
2020/12/24 01:13:55;;;;;;;10.25;1.02;;;5.60;92.00;;;;;;4995272;28;20077;-55
2020/12/24 01:16:21;;;;;;;9.82;1.17;;;5.60;92.30;;;;;;4995237;28;20054;-55
2020/12/24 01:18:47;;;;;;;2.17;0.73;;;5.60;92.30;;;;;;4995202;28;20487;-56
2020/12/24 01:21:13;;;;;;;8.55;0.90;;;5.60;92.50;;;;;;4995199;28;20486;-55
2020/12/24 01:23:38;;;;;;;6.80;0.93;;;5.60;92.30;;;;;;4994930;28;20065;-55
2020/12/24 01:26:09;;;;;;;5.03;0.60;;;5.60;92.50;;;;;;4994811;28;20076;-55
2020/12/24 01:28:35;;;;;;;7.63;0.70;;;5.60;92.30;;;;;;4994926;28;20050;-55
2020/12/24 01:31:01;;;;;;;9.30;0.80;;;5.60;91.30;;;;;;4994873;28;20089;-55
2020/12/24 01:33:28;;;;;;;2.53;0.52;;;5.60;92.00;;;;;;4994599;28;20050;-55
2020/12/24 01:35:54;;;;;;;3.05;0.47;;;5.60;91.80;;;;;;4994872;28;20074;-55
2020/12/24 01:38:20;;;;;;;3.22;0.70;;;5.60;91.00;;;;;;4994567;28;20093;-56
2020/12/24 01:40:46;;;;;;;4.68;1.13;;;5.60;91.40;;;;;;4994677;28;20050;-55
2020/12/24 01:43:12;;;;;;;2.10;0.50;;;5.50;91.20;;;;;;4994501;28;20503;-55
2020/12/24 01:45:38;;;;;;;1.95;0.77;;;5.50;91.20;;;;;;4994485;28;20046;-56
2020/12/24 01:48:04;;;;;;;2.83;1.02;;;5.50;91.40;;;;;;4994461;28;20054;-56
2020/12/24 01:50:29;;;;;;;4.85;1.17;;;5.50;91.40;;;;;;4994311;28;20492;-56
2020/12/24 01:53:23;;;;;;;4.68;1.20;;;5.40;91.60;;;;;;4994071;28;20046;-55
2020/12/24 01:55:50;;;;;;;7.93;1.13;;;5.40;91.50;;;;;;4994186;28;20098;-55
2020/12/24 01:58:17;;;;;;;7.63;1.42;;;5.40;91.40;;;;;;4994369;28;20408;-55
2020/12/24 02:00:47;;;;;;;8.80;1.42;;;5.40;91.80;;;;;;4994127;28;20487;-56
2020/12/24 02:03:16;;;;;;;5.80;0.90;;;5.30;92.00;;;;;;4994232;28;20050;-55
2020/12/24 02:05:43;;;;;;;5.68;1.35;;;5.30;91.50;;;;;;4994102;28;20476;-55
2020/12/24 02:08:14;;;;;;;9.52;1.80;;;5.30;91.80;;;;;;4994108;28;20113;-55
2020/12/24 02:10:39;;;;;;;6.63;1.20;;;5.30;92.10;;;;;;4994129;28;20694;-55
2020/12/24 02:13:05;;;;;;;5.57;0.98;;;5.30;91.90;;;;;;4994100;28;20061;-56
2020/12/24 02:15:31;;;;;;;8.38;1.15;;;5.30;91.60;;;;;;4993928;28;20046;-55
2020/12/24 02:17:57;;;;;;;5.38;0.77;;;5.20;91.80;;;;;;4994069;28;20061;-55
2020/12/24 02:20:23;;;;;;;2.92;0.90;;;5.20;91.50;;;;;;4993947;28;20038;-55
2020/12/24 02:22:48;;;;;;;5.65;0.80;;;5.20;91.70;;;;;;4993770;28;20121;-55
2020/12/24 02:25:14;;;;;;;3.25;0.88;;;5.20;91.60;;;;;;4993626;28;20116;-55
2020/12/24 02:27:39;;;;;;;4.50;0.65;;;5.20;91.90;;;;;;4993943;28;20042;-55
2020/12/24 02:30:05;;;;;;;3.17;0.70;;;5.20;91.60;;;;;;4993495;28;20134;-54
2020/12/24 02:32:31;;;;;;;5.80;0.77;;;5.20;92.00;;;;;;4993655;28;20129;-55
2020/12/24 02:34:57;;;;;;;6.80;1.00;;;5.10;91.90;;;;;;4993717;28;20408;-55
2020/12/24 02:37:23;;;;;;;3.80;0.90;;;5.10;91.80;;;;;;4993696;28;20416;-55
2020/12/24 02:39:50;;;;;;;5.65;0.90;;;5.10;92.20;;;;;;4993593;28;20053;-55
2020/12/24 02:42:17;;;;;;;4.15;0.60;;;5.00;92.30;;;;;;4993669;28;20428;-55
2020/12/24 02:44:43;;;;;;;3.13;0.90;;;5.10;91.50;;;;;;4993611;28;20157;-56
2020/12/24 02:47:08;;;;;;;3.85;0.85;;;5.00;91.90;;;;;;4993676;28;20408;-55
2020/12/24 02:49:34;;;;;;;2.85;0.82;;;4.90;91.70;;;;;;4993504;28;20043;-55
2020/12/24 02:52:00;;;;;;;2.13;1.10;;;4.90;91.20;;;;;;4993474;28;20042;-55
2020/12/24 02:54:26;;;;;;;4.15;0.80;;;4.90;91.90;;;;;;4993097;28;20062;-55
2020/12/24 02:56:52;;;;;;;4.75;0.73;;;4.90;92.20;;;;;;4993125;28;20094;-55
2020/12/24 02:59:18;;;;;;;5.28;1.10;;;4.90;92.30;;;;;;4993586;28;20104;-55
2020/12/24 03:01:43;;;;;;;6.25;1.08;;;4.80;92.00;;;;;;4993277;28;20082;-55
2020/12/24 03:04:09;;;;;;;7.10;1.27;;;4.80;92.30;;;;;;4993134;28;20550;-55
2020/12/24 03:06:35;;;;;;;5.32;1.17;;;4.80;92.30;;;;;;4992868;28;20067;-55
2020/12/24 03:09:00;;;;;;;1.58;0.98;;;4.80;92.00;;;;;;4993039;28;20494;-55
2020/12/24 03:11:26;;;;;;;5.75;1.02;;;4.80;92.00;;;;;;4992755;28;20452;-55
2020/12/24 03:13:52;;;;;;;5.45;0.93;;;4.80;91.80;;;;;;4993215;28;20400;-55
2020/12/24 03:16:17;;;;;;;3.63;1.17;;;4.80;92.20;;;;;;4993108;28;20122;-54
2020/12/24 03:18:44;;;;;;;3.50;1.10;;;4.80;92.40;;;;;;4992756;28;20065;-55
2020/12/24 03:21:10;;;;;;;4.03;1.17;;;4.80;92.30;;;;;;4992671;28;20050;-55
2020/12/24 03:23:36;;;;;;;4.55;1.30;;;4.80;92.70;;;;;;4991577;28;20050;-55
2020/12/24 03:26:02;;;;;;;6.00;1.40;;;4.80;92.80;;;;;;4992699;28;20050;-55
2020/12/24 03:28:27;;;;;;;6.88;1.55;;;4.90;92.50;;;;;;4992893;28;20038;-54
2020/12/24 03:30:53;;;;;;;1.75;1.30;;;4.80;92.60;;;;;;4992757;28;20116;-55
2020/12/24 03:33:20;;;;;;;5.55;1.58;;;4.80;92.50;;;;;;4992700;28;20404;-55
2020/12/24 03:35:47;;;;;;;4.95;0.98;;;4.90;92.50;;;;;;4992712;28;20050;-55
2020/12/24 03:38:14;;;;;;;7.82;1.52;;;4.90;92.50;;;;;;4992673;28;20043;-55
2020/12/24 03:40:40;;;;;;;3.05;0.90;;;4.80;92.50;;;;;;4992892;28;20482;-55
2020/12/24 03:43:06;;;;;;;4.53;1.10;;;4.90;92.60;;;;;;4992760;28;20499;-55
2020/12/24 03:45:31;;;;;;;5.25;1.27;;;4.80;92.20;;;;;;4992749;28;20129;-55
2020/12/24 03:47:57;;;;;;;4.68;1.10;;;4.80;92.50;;;;;;4992821;28;20053;-55
2020/12/24 03:50:23;;;;;;;3.95;1.30;;;4.80;92.90;;;;;;4992507;28;20046;-55
2020/12/24 03:52:48;;;;;;;5.18;1.10;;;4.80;92.50;;;;;;4992512;28;20469;-55
2020/12/24 03:55:14;;;;;;;4.47;1.20;;;4.80;92.70;;;;;;4992366;28;20082;-55
2020/12/24 03:57:40;;;;;;;3.60;1.00;;;4.80;92.80;;;;;;4992682;28;20050;-55
2020/12/24 04:00:05;;;;;;;5.88;1.17;;;4.80;92.80;;;;;;4992688;28;20042;-55
2020/12/24 04:02:31;;;;;;;5.65;1.15;;;4.80;92.80;;;;;;4991916;28;20128;-55
2020/12/24 04:04:57;;;;;;;5.55;1.20;;;4.80;92.80;;;;;;4992140;28;20050;-54
2020/12/24 04:07:23;;;;;;;4.47;1.20;;;4.90;93.60;;;;;;4992313;28;20058;-55
2020/12/24 04:09:48;;;;;;;1.92;1.23;;;4.90;92.90;;;;;;4992600;28;20046;-55
2020/12/24 04:12:14;;;;;;;3.72;1.52;;;4.90;93.20;;;;;;4992763;28;20042;-55
2020/12/24 04:14:40;;;;;;;9.10;1.50;;;5.00;93.70;;;;;;4992588;28;20046;-55
2020/12/24 04:17:05;;;;;;;6.40;1.30;;;5.00;93.40;;;;;;4993460;28;20069;-55
2020/12/24 04:19:32;;;;;;;4.93;1.60;;;5.00;93.20;;;;;;4996221;28;20133;-55
2020/12/24 04:21:57;;;;;;;3.55;1.00;;;4.90;93.40;;;;;;4996016;28;20134;-55
2020/12/24 04:24:23;;;;;;;5.50;1.33;;;5.00;93.20;;;;;;4995980;28;20069;-55
2020/12/24 04:26:48;;;;;;;2.83;1.10;;;5.00;93.30;;;;;;4996201;28;20105;-55
2020/12/24 04:29:14;;;;;;;1.80;1.10;;;5.00;93.70;;;;;;4996385;28;20042;-55
2020/12/24 04:31:41;;;;;;;4.10;1.40;;;5.10;93.70;;;;;;4996180;28;20049;-55
2020/12/24 04:34:07;;;;;;;4.78;1.40;;;5.00;93.70;;;;;;4995880;28;20046;-55
2020/12/24 04:36:32;;;;;;;3.92;1.65;;;5.10;93.70;;;;;;4995709;28;20050;-55
2020/12/24 04:38:58;;;;;;;7.22;1.63;;;5.00;93.70;;;;;;4996053;28;20046;-55
2020/12/24 04:41:24;;;;;;;6.28;1.77;;;5.10;93.70;;;;;;4995941;28;20046;-55
2020/12/24 04:43:50;;;;;;;6.65;2.25;;;5.10;93.50;;;;;;4995550;28;20054;-53
2020/12/24 04:46:17;;;;;;;4.65;2.03;;;5.20;93.50;;;;;;4995719;28;20043;-55
2020/12/24 04:48:43;;;;;;;5.97;2.55;;;5.10;93.40;;;;;;4995632;28;20049;-55
2020/12/24 04:51:09;;;;;;;7.13;2.88;;;5.10;93.00;;;;;;4995533;28;20042;-55
2020/12/24 04:53:37;;;;;;;4.10;2.30;;;5.10;93.30;;;;;;4995361;28;20054;-55
2020/12/24 04:56:06;;;;;;;5.20;1.92;;;5.10;93.30;;;;;;4995273;28;20058;-55
2020/12/24 04:58:32;;;;;;;3.40;1.70;;;5.10;93.30;;;;;;4995448;28;20408;-55
2020/12/24 05:00:58;;;;;;;3.65;1.70;;;5.10;93.30;;;;;;4995212;28;20101;-55
2020/12/24 05:03:24;;;;;;;3.50;1.20;;;5.10;93.40;;;;;;4995351;28;20057;-55
2020/12/24 05:05:52;;;;;;;7.65;1.20;;;5.10;93.10;;;;;;4995135;28;20420;-56
2020/12/24 05:08:17;;;;;;;8.10;1.45;;;5.10;93.30;;;;;;4995481;28;20046;-55
2020/12/24 05:11:02;;;;;;;3.03;1.10;;;5.10;93.30;;;;;;4995360;28;20093;-55
2020/12/24 05:13:28;;;;;;;3.58;1.27;;;5.10;93.30;;;;;;4995215;28;20043;-55
2020/12/24 05:15:53;;;;;;;3.05;1.25;;;5.10;93.10;;;;;;4995201;28;20053;-55
2020/12/24 05:18:23;;;;;;;3.97;1.30;;;5.10;93.10;;;;;;4994880;28;20056;-55
2020/12/24 05:20:51;;;;;;;3.55;1.45;;;5.10;93.20;;;;;;4995192;28;20054;-55
2020/12/24 05:23:18;;;;;;;2.75;1.40;;;5.20;93.40;;;;;;4994901;28;20492;-55
2020/12/24 05:25:45;;;;;;;5.75;1.40;;;5.20;93.60;;;;;;4995026;28;20038;-55
2020/12/24 05:28:21;;;;;;;3.35;1.30;;;5.20;93.60;;;;;;4994844;28;20046;-55
2020/12/24 05:30:48;;;;;;;2.63;1.20;;;5.10;93.70;;;;;;4994795;28;20042;-55
2020/12/24 05:33:29;;;;;;;3.10;1.50;;;5.00;94.00;;;;;;4994850;28;20129;-55
2020/12/24 05:36:22;;;;;;;4.38;1.60;;;5.00;94.20;;;;;;4994719;28;20514;-55
2020/12/24 05:38:50;;;;;;;4.07;1.90;;;4.90;93.00;;;;;;4994762;28;20050;-55
2020/12/24 05:41:25;;;;;;;3.10;1.58;;;4.90;93.90;;;;;;4994888;28;20050;-55
2020/12/24 05:43:56;;;;;;;4.65;1.70;;;4.90;93.60;;;;;;4994703;28;20053;-55
2020/12/24 05:46:22;;;;;;;6.38;1.63;;;5.00;93.30;;;;;;4994506;28;20039;-55
2020/12/24 05:48:48;;;;;;;4.60;2.08;;;5.00;93.10;;;;;;4994135;28;20458;-55
2020/12/24 05:51:18;;;;;;;4.95;1.80;;;5.00;93.20;;;;;;4994434;28;20100;-55
2020/12/24 05:53:45;;;;;;;6.78;2.05;;;5.00;93.40;;;;;;4994287;28;20049;-55
2020/12/24 05:56:19;;;;;;;4.03;1.65;;;5.00;93.80;;;;;;4994153;28;20054;-55
2020/12/24 05:58:49;;;;;;;6.75;1.70;;;5.00;94.00;;;;;;4994357;28;20065;-55
2020/12/24 06:01:15;;;;;;;3.97;1.90;;;4.90;93.80;;;;;;4994118;28;20054;-54
2020/12/24 06:04:03;;;;;;;5.32;2.13;;;5.00;93.80;;;;;;4994264;28;20473;-55
2020/12/24 06:06:42;;;;;;;3.78;1.67;;;5.00;93.50;;;;;;4994325;28;20053;-55
2020/12/24 06:09:15;;;;;;;3.03;1.70;;;5.00;93.70;;;;;;4993969;28;20053;-55
2020/12/24 06:11:49;;;;;;;5.07;1.70;;;5.00;94.10;;;;;;4994098;28;20420;-54
2020/12/24 06:14:35;;;;;;;7.07;1.80;;;5.10;93.90;;;;;;4994591;28;20046;-55
2020/12/24 06:17:03;;;;;;;4.93;1.90;;;5.10;93.70;;;;;;4993779;28;20097;-55
2020/12/24 06:19:35;;;;;;;3.03;1.70;;;5.10;93.60;;;;;;4994107;28;20140;-55
2020/12/24 06:22:01;;;;;;;7.70;2.38;;;5.10;93.80;;;;;;4994040;28;20057;-55
2020/12/24 06:24:29;;;;;;;6.28;1.92;;;5.10;93.90;;;;;;4993878;28;20050;-55
2020/12/24 06:26:56;;;;;;;4.13;1.67;;;5.10;93.80;;;;;;4993851;28;20058;-55
2020/12/24 06:29:25;;;;;;;5.80;1.92;;;5.10;93.90;;;;;;4994035;28;20046;-55
2020/12/24 06:31:53;;;;;;;8.40;2.10;;;5.10;93.60;;;;;;4993457;28;20542;-55
2020/12/24 06:34:28;;;;;;;6.50;2.13;;;5.10;93.90;;;;;;4993457;28;20133;-55
2020/12/24 06:36:54;;;;;;;6.13;2.17;;;5.10;94.10;;;;;;4993794;28;20046;-55
2020/12/24 06:39:43;;;;;;;7.82;2.30;;;5.00;94.30;;;;;;4993081;28;20411;-55
2020/12/24 06:42:44;;;;;;;4.78;1.95;;;5.10;94.50;;;;;;4993438;28;20058;-55
2020/12/24 06:45:30;;;;;;;7.55;2.08;;;5.10;94.30;;;;;;4993564;28;20054;-55
2020/12/24 06:48:23;;;;;;;7.07;2.33;;;5.20;94.10;;;;;;4993251;28;20048;-55
2020/12/24 06:50:50;;;;;;;7.15;2.08;;;5.10;94.30;;;;;;4993608;28;20121;-55
2020/12/24 06:53:26;;;;;;;4.80;2.40;;;5.10;94.30;;;;;;4993551;28;20082;-55
2020/12/24 06:56:16;;;;;;;5.43;2.20;;;5.10;94.30;;;;;;4993109;28;20062;-55
2020/12/24 06:58:45;;;;;;;8.73;3.03;;;5.10;94.20;;;;;;4993657;28;20138;-55
2020/12/24 07:01:22;;;;;;;7.70;2.30;;;5.20;94.10;;;;;;4993277;28;20046;-55
2020/12/24 07:03:51;;;;;;;6.47;2.20;;;5.10;94.40;;;;;;4992975;28;20050;-55
2020/12/24 07:06:42;;;;;;;2.73;2.00;;;5.10;94.50;;;;;;4991894;28;20415;-54
2020/12/24 07:09:20;;;;;;;7.03;2.78;;;5.10;94.60;;;;;;4991953;28;20042;-55
2020/12/24 07:11:51;;;;;;;5.60;2.75;;;5.10;94.50;;;;;;4991847;28;20043;-55
2020/12/24 07:14:24;;;;;;;5.30;2.25;;;5.10;94.50;;;;;;4989464;28;20050;-55
2020/12/24 07:16:52;;;;;;;5.47;2.15;;;5.20;94.60;;;;;;4991792;28;20129;-55
2020/12/24 07:19:19;;;;;;;5.35;2.58;;;5.20;94.40;;;;;;4989243;28;20046;-55
2020/12/24 07:21:50;;;;;;;6.45;2.30;;;5.30;94.40;;;;;;4991793;28;20050;-55
2020/12/24 07:24:26;;;;;;;5.22;2.45;;;5.30;94.40;;;;;;4989212;28;20404;-55
2020/12/24 07:27:03;;;;;;;10.73;2.60;;;5.30;94.50;;;;;;4989857;28;20050;-54
2020/12/24 07:29:30;;;;;;;10.40;2.75;;;5.30;94.40;;;;;;4988412;28;20720;-55
2020/12/24 07:32:01;;;;;;;8.60;2.65;;;5.30;94.50;;;;;;4989282;28;20918;-53
2020/12/24 07:34:29;;;;;;;7.53;2.55;;;5.40;94.40;;;;;;4991601;28;20101;-54
2020/12/24 07:36:55;;;;;;;14.45;3.58;;;5.40;94.50;;;;;;4988908;28;20661;-54
2020/12/24 07:39:21;;;;;;;10.98;2.70;;;5.40;94.20;;;;;;4991096;28;20081;-55
2020/12/24 07:41:47;;;;;;;11.38;2.50;;;5.40;94.20;;;;;;4989236;28;20073;-55
2020/12/24 07:44:16;;;;;;;14.32;2.53;;;5.40;94.30;;;;;;4990887;28;20499;-55
2020/12/24 07:46:46;;;;;;;11.38;2.10;;;5.40;94.20;;;;;;4991634;28;20042;-55
2020/12/24 07:49:13;;;;;;;9.90;2.28;;;5.40;94.20;;;;;;4991312;28;20056;-55
2020/12/24 07:51:39;;;;;;;10.90;1.98;;;5.40;94.30;;;;;;4991516;28;20070;-55
2020/12/24 07:54:05;;;;;;;15.07;3.55;;;5.40;94.20;;;;;;4995474;28;20069;-53
2020/12/24 07:56:33;;;;;;;17.85;2.30;;;5.50;94.10;;;;;;4995027;28;20062;-55
2020/12/24 07:59:06;;;;;;;19.30;2.20;;;5.50;93.90;;;;;;4995027;28;20487;-55
2020/12/24 08:01:31;;;;;;;12.02;1.67;;;5.60;93.80;;;;;;4994566;28;20141;-55
2020/12/24 08:03:58;;;;;;;23.52;2.08;;;5.60;93.60;;;;;;4993735;28;20113;-55
2020/12/24 08:06:24;;;;;;;16.83;3.05;;;5.60;93.30;;;;;;4995510;28;20038;-55
2020/12/24 08:08:50;;;;;;;12.80;2.30;;;5.60;93.10;;;;;;4995384;28;20051;-55
2020/12/24 08:11:16;;;;;;;15.90;2.10;;;5.60;92.90;;;;;;4995555;28;20118;-55
2020/12/24 08:13:41;;;;;;;11.38;2.33;;;5.50;92.70;;;;;;4995823;28;20058;-55
2020/12/24 08:16:10;;;;;;;22.10;2.72;;;5.50;92.80;;;;;;4995856;28;20043;-55
2020/12/24 08:18:44;;;;;;;10.95;1.45;;;5.50;92.90;;;;;;4995545;28;20081;-55
2020/12/24 08:21:32;;;;;;;13.30;1.20;;;5.40;92.50;;;;;;4993624;28;20046;-55
2020/12/24 08:24:09;;;;;;;15.02;3.22;;;5.40;92.70;;;;;;4996031;28;20377;-55
2020/12/24 08:26:36;;;;;;;11.38;2.20;;;5.40;92.20;;;;;;4995801;28;20378;-55
2020/12/24 08:29:07;;;;;;;16.70;2.22;;;5.40;92.10;;;;;;4995040;28;20451;-55
2020/12/24 08:31:37;;;;;;;23.42;3.08;;;5.30;92.40;;;;;;4993497;28;20089;-55
2020/12/24 08:34:09;;;;;;;13.27;1.65;;;5.30;92.20;;;;;;4995526;28;20089;-55
2020/12/24 08:36:47;;;;;;;12.90;1.52;;;5.30;92.30;;;;;;4995658;28;20129;-56
2020/12/24 08:39:14;;;;;;;10.88;1.85;;;5.40;92.20;;;;;;4993591;28;20050;-55
2020/12/24 08:41:43;;;;;;;8.93;2.33;;;5.60;92.20;;;;;;4995282;28;20042;-55
2020/12/24 08:44:10;;;;;;;;;;;5.60;92.50;;;;;;4994117;28;20137;-55
2020/12/24 08:46:35;;;;;;;9.65;1.42;;;5.60;92.50;;;;;;4994965;28;19991;-55
2020/12/24 08:49:26;;;;;;;10.35;1.38;;;5.70;92.30;;;;;;4995017;28;20476;-55
2020/12/24 08:52:12;;;;;;;7.57;2.10;;;5.80;92.50;;;;;;4995301;28;20042;-55
2020/12/24 08:54:38;;;;;;;11.27;1.55;;;5.80;92.40;;;;;;4994879;28;20133;-55
2020/12/24 08:57:09;;;;;;;9.32;1.67;;;5.80;92.40;;;;;;4994846;28;20064;-55
2020/12/24 08:59:35;;;;;;;5.75;1.00;;;5.90;92.50;;;;;;4995041;28;20073;-55
2020/12/24 09:02:01;;;;;;;13.48;1.88;;;5.90;92.50;;;;;;4995098;28;20506;-55
2020/12/24 09:04:27;;;;;;;8.63;1.42;;;6.00;92.50;;;;;;4993935;28;20046;-55
2020/12/24 09:06:52;;;;;;;7.55;1.83;;;6.00;92.30;;;;;;4994793;28;20049;-55
2020/12/24 09:09:22;;;;;;;14.77;2.53;;;6.00;92.30;;;;;;4995057;28;20045;-55
2020/12/24 09:11:49;;;;;;;9.75;1.92;;;6.10;92.60;;;;;;4991350;28;20084;-55
2020/12/24 09:14:20;;;;;;;13.40;2.03;;;6.10;92.40;;;;;;4997565;28;20074;-55
2020/12/24 09:16:54;;;;;;;8.23;1.20;;;6.10;92.30;;;;;;4991923;28;20070;-56
2020/12/24 09:19:20;;;;;;;18.33;3.58;;;6.20;92.30;;;;;;4994424;28;20038;-55
2020/12/24 09:22:12;;;;;;;14.70;3.67;;;6.30;91.90;;;;;;4993867;28;20100;-54
2020/12/24 09:24:48;;;;;;;10.88;2.22;;;6.30;91.60;;;;;;4991211;28;20133;-55
2020/12/24 09:27:14;;;;;;;11.63;1.83;;;6.30;91.50;;;;;;4994212;28;20046;-56
2020/12/24 09:29:40;;;;;;;10.80;1.60;;;6.30;91.10;;;;;;4994155;28;20046;-56
2020/12/24 09:32:05;;;;;;;7.55;1.80;;;6.40;91.60;;;;;;4993500;28;20073;-56
2020/12/24 09:34:31;;;;;;;9.73;1.63;;;6.40;91.30;;;;;;4994241;28;20468;-55
2020/12/24 09:36:57;;;;;;;11.63;1.60;;;6.40;91.40;;;;;;4993123;28;20053;-56
2020/12/24 09:39:23;;;;;;;13.73;2.00;;;6.40;91.10;;;;;;4994339;28;20433;-56
2020/12/24 09:41:49;;;;;;;10.93;1.40;;;6.30;91.30;;;;;;4994514;28;20050;-55
2020/12/24 09:44:16;;;;;;;11.02;1.83;;;6.30;91.20;;;;;;4994824;28;20057;-56
2020/12/24 09:46:42;;;;;;;11.65;1.45;;;6.30;90.90;;;;;;4994625;28;20109;-56
2020/12/24 09:49:08;;;;;;;8.35;1.67;;;6.30;90.80;;;;;;4994115;28;20050;-56
2020/12/24 09:51:38;;;;;;;6.45;1.30;;;6.30;90.60;;;;;;4993860;28;20053;-56
2020/12/24 09:54:05;;;;;;;8.82;1.30;;;6.30;90.30;;;;;;4994366;28;20072;-56
2020/12/24 09:56:31;;;;;;;6.45;0.88;;;6.30;90.80;;;;;;4994233;28;20054;-56
2020/12/24 09:58:57;;;;;;;5.93;0.88;;;6.30;90.60;;;;;;4994618;28;20082;-56
2020/12/24 10:01:23;;;;;;;9.82;1.10;;;6.30;90.20;;;;;;4994306;28;20085;-55
2020/12/24 10:03:48;;;;;;;12.68;2.05;;;6.30;90.40;;;;;;4993243;28;20046;-55
2020/12/24 10:06:14;;;;;;;7.00;1.05;;;6.40;89.80;;;;;;4993798;28;20050;-55
2020/12/24 10:08:41;;;;;;;10.80;2.00;;;6.40;90.40;;;;;;4984160;28;20065;-55
2020/12/24 10:11:13;;;;;;;5.05;1.00;;;6.50;90.70;;;;;;4993313;28;20050;-56
2020/12/24 10:13:39;;;;;;;8.68;1.30;;;6.50;90.50;;;;;;4993865;28;20056;-56
2020/12/24 10:16:05;;;;;;;7.63;1.30;;;6.50;89.30;;;;;;4992925;28;20050;-56
2020/12/24 10:18:31;;;;;;;14.85;1.38;;;6.60;90.30;;;;;;4993458;28;20054;-56
2020/12/24 10:20:57;;;;;;;8.82;1.70;;;6.60;90.40;;;;;;4993863;28;20105;-56
2020/12/24 10:23:22;;;;;;;9.23;1.48;;;6.60;90.40;;;;;;4993115;28;20088;-56
2020/12/24 10:25:48;;;;;;;6.18;1.10;;;6.60;90.20;;;;;;4993065;28;20054;-56
2020/12/24 10:28:14;;;;;;;6.32;1.13;;;6.60;89.20;;;;;;4992494;28;20050;-55
2020/12/24 10:30:43;;;;;;;8.75;1.30;;;6.60;89.30;;;;;;4989565;28;20042;-56
2020/12/24 10:33:08;;;;;;;13.80;1.40;;;6.70;89.40;;;;;;4992955;28;20392;-55
2020/12/24 10:35:36;;;;;;;13.68;1.45;;;6.70;88.50;;;;;;4992281;28;20042;-56
2020/12/24 10:38:03;;;;;;;7.35;1.17;;;6.60;87.90;;;;;;4993220;28;20129;-55
2020/12/24 10:40:30;;;;;;;11.75;2.10;;;6.70;88.70;;;;;;4993367;28;20046;-55
2020/12/24 10:42:59;;;;;;;6.57;1.20;;;6.70;88.40;;;;;;4993269;28;20042;-56
2020/12/24 10:45:26;;;;;;;5.38;1.35;;;6.60;87.40;;;;;;4990518;28;20054;-55
2020/12/24 10:47:52;;;;;;;9.40;1.40;;;6.60;88.70;;;;;;4992927;28;20481;-56
2020/12/24 10:50:19;;;;;;;16.67;1.52;;;6.60;88.70;;;;;;4992967;28;20050;-56
2020/12/24 10:52:46;;;;;;;10.50;1.60;;;6.60;89.30;;;;;;4992932;28;20046;-56
2020/12/24 10:55:12;;;;;;;10.25;1.42;;;6.60;89.80;;;;;;4993118;28;20066;-58
2020/12/24 10:57:38;;;;;;;14.65;1.50;;;6.60;89.70;;;;;;4994257;28;20078;-59
2020/12/24 11:00:09;;;;;;;14.80;1.63;;;6.60;90.00;;;;;;4994720;28;20101;-58
2020/12/24 11:02:35;;;;;;;7.93;1.42;;;6.60;90.10;;;;;;4994311;28;20038;-59
2020/12/24 11:05:01;;;;;;;11.77;1.75;;;6.60;89.70;;;;;;4992771;28;20472;-58
2020/12/24 11:07:26;;;;;;;13.15;1.67;;;6.60;90.10;;;;;;4994518;28;20074;-59
2020/12/24 11:09:52;;;;;;;8.25;1.20;;;6.60;89.40;;;;;;4993987;28;20039;-58
2020/12/24 11:12:18;;;;;;;9.40;1.58;;;6.70;89.80;;;;;;4994016;28;20046;-58
2020/12/24 11:14:43;;;;;;;14.40;1.33;;;6.70;89.80;;;;;;4994061;28;20125;-58
2020/12/24 11:17:09;;;;;;;11.18;1.73;;;6.70;89.20;;;;;;4994354;28;20058;-58
2020/12/24 11:19:35;;;;;;;12.57;1.70;;;6.70;87.20;;;;;;4994295;28;20057;-59
2020/12/24 11:22:00;;;;;;;9.70;1.38;;;6.70;88.50;;;;;;4994175;28;20542;-58
2020/12/24 11:24:26;;;;;;;11.68;1.35;;;6.70;88.40;;;;;;4994274;28;20053;-59
2020/12/24 11:26:52;;;;;;;9.88;2.20;;;6.70;88.80;;;;;;4993962;28;20456;-59
2020/12/24 11:29:18;;;;;;;8.52;1.60;;;6.70;89.80;;;;;;4993680;28;20097;-59
2020/12/24 11:31:43;;;;;;;5.85;1.20;;;6.70;88.60;;;;;;4994319;28;20496;-58
2020/12/24 11:34:09;;;;;;;15.80;1.92;;;6.70;87.40;;;;;;4993132;28;20054;-59
2020/12/24 11:36:36;;;;;;;13.80;1.67;;;6.70;88.10;;;;;;4992679;28;20043;-58
2020/12/24 11:39:03;;;;;;;11.68;1.95;;;6.80;88.70;;;;;;4977841;28;20129;-59
2020/12/24 11:41:29;;;;;;;10.50;1.40;;;6.80;88.20;;;;;;4994210;28;20042;-59
2020/12/24 11:43:55;;;;;;;8.65;1.80;;;6.90;88.80;;;;;;4993903;28;20100;-59
2020/12/24 11:46:24;;;;;;;21.58;2.13;;;6.90;89.20;;;;;;4993562;28;20472;-59
2020/12/24 11:48:51;;;;;;;8.55;1.40;;;6.90;89.60;;;;;;4992320;28;20070;-59
2020/12/24 11:51:18;;;;;;;13.85;2.38;;;6.90;89.10;;;;;;4993164;28;20038;-58
2020/12/24 11:53:45;;;;;;;8.88;1.65;;;7.00;89.10;;;;;;4993163;28;20489;-59
2020/12/24 11:56:20;;;;;;;10.48;1.60;;;7.00;90.10;;;;;;4992909;28;20099;-58
2020/12/24 11:58:48;;;;;;;12.32;1.65;;;7.10;88.10;;;;;;4991835;28;20140;-59
2020/12/24 12:01:14;;;;;;;9.50;1.40;;;7.10;88.70;;;;;;4993415;28;20042;-58
2020/12/24 12:03:40;;;;;;;8.93;1.40;;;7.10;87.70;;;;;;4993470;28;20045;-59
2020/12/24 12:06:06;;;;;;;8.88;1.90;;;7.10;88.50;;;;;;4993237;28;20042;-59
2020/12/24 12:08:32;;;;;;;11.10;1.67;;;7.10;88.00;;;;;;4993101;28;20038;-59
2020/12/24 12:11:05;;;;;;;8.68;1.33;;;7.10;88.40;;;;;;4993333;28;20394;-59
2020/12/24 12:13:31;;;;;;;8.73;1.42;;;7.10;86.20;;;;;;4993158;28;20034;-59
2020/12/24 12:15:57;;;;;;;9.70;1.17;;;7.00;86.50;;;;;;4992968;28;20044;-59
2020/12/24 12:18:23;;;;;;;7.88;1.83;;;7.00;86.70;;;;;;4993335;28;20047;-59
2020/12/24 12:20:50;;;;;;;8.68;1.30;;;7.00;86.70;;;;;;4993220;28;20034;-59
2020/12/24 12:23:15;;;;;;;11.93;1.38;;;7.00;87.70;;;;;;4993253;28;20472;-59
2020/12/24 12:25:41;;;;;;;15.57;1.33;;;7.00;86.10;;;;;;4993120;28;20045;-58
2020/12/24 12:28:07;;;;;;;7.93;1.02;;;6.90;87.40;;;;;;4993650;28;20050;-59
2020/12/24 12:30:34;;;;;;;8.45;1.13;;;6.90;86.70;;;;;;4993890;28;20061;-59
2020/12/24 12:33:00;;;;;;;10.50;1.80;;;6.90;87.80;;;;;;4993325;28;20476;-59
2020/12/24 12:35:26;;;;;;;6.20;1.23;;;6.90;87.80;;;;;;4993168;28;20053;-59
2020/12/24 12:37:51;;;;;;;12.38;1.40;;;6.90;86.90;;;;;;4993978;28;20042;-59
2020/12/24 12:40:17;;;;;;;9.32;1.10;;;6.90;86.30;;;;;;4996769;28;20046;-59
2020/12/24 12:42:43;;;;;;;6.28;1.17;;;6.90;86.50;;;;;;4996508;28;20092;-58
2020/12/24 12:45:09;;;;;;;9.45;1.30;;;6.90;86.30;;;;;;4996605;28;20108;-59
2020/12/24 12:47:39;;;;;;;5.40;1.45;;;6.90;87.20;;;;;;4997171;28;20065;-59
2020/12/24 12:50:10;;;;;;;13.65;2.00;;;6.90;86.70;;;;;;4996275;28;20038;-59
2020/12/24 12:52:36;;;;;;;10.25;2.20;;;6.90;86.80;;;;;;4996843;28;20134;-58
2020/12/24 12:55:06;;;;;;;5.50;1.52;;;6.90;86.10;;;;;;4996462;28;20042;-59
2020/12/24 12:57:35;;;;;;;15.10;2.13;;;6.80;86.90;;;;;;4995660;28;20054;-59
2020/12/24 13:00:07;;;;;;;6.60;1.83;;;6.80;87.40;;;;;;4993307;28;20499;-58